Wetterdaten: Woche 16.02.04 - 22.02.04 (KW8)
Datum Zeit Temperatur Luftfeuchte Luftdruck Regenmenge Wind Richtung Taupunkt Windchill
16.02.2004 00:00 2.8 C 72 % 1024.4 hPa 0.0 l/m 0.0 km/h (0 Bft) N -1.8 C 2.8 C
16.02.2004 01:00 1.5 C 80 % 1024.3 hPa 0.0 l/m 0.3 km/h (0 Bft) O-NO -1.6 C 1.4 C
16.02.2004 02:00 0.7 C 84 % 1024.3 hPa 0.0 l/m 0.0 km/h (0 Bft) N -1.8 C 0.7 C
16.02.2004 03:00 1.0 C 86 % 1024.3 hPa 0.0 l/m 0.1 km/h (0 Bft) N -1.0 C 1.0 C
16.02.2004 04:00 1.6 C 83 % 1024.3 hPa 0.0 l/m 0.0 km/h (0 Bft) N -0.9 C 1.6 C
16.02.2004 05:00 2.3 C 80 % 1024.9 hPa 0.0 l/m 0.1 km/h (0 Bft) N -0.8 C 2.3 C
16.02.2004 06:00 2.9 C 75 % 1025.3 hPa 0.0 l/m 0.6 km/h (0 Bft) SO -1.0 C 2.8 C
16.02.2004 07:00 3.4 C 69 % 1025.3 hPa 0.0 l/m 1.4 km/h (1 Bft) N-NO -1.7 C 3.3 C
16.02.2004 08:00 3.9 C 63 % 1026.2 hPa 0.0 l/m 5.8 km/h (2 Bft) O -2.5 C 2.7 C
16.02.2004 09:00 4.3 C 62 % 1026.4 hPa 0.0 l/m 4.4 km/h (1 Bft) O -2.4 C 3.4 C
16.02.2004 10:00 5.7 C 57 % 1026.4 hPa 0.0 l/m 5.3 km/h (1 Bft) O-SO -2.2 C 4.8 C
16.02.2004 11:00 7.5 C 51 % 1026.4 hPa 0.0 l/m 12.3 km/h (3 Bft) O-SO -2.0 C 5.6 C
16.02.2004 12:00 8.4 C 49 % 1025.7 hPa 0.0 l/m 14.4 km/h (3 Bft) O-SO -1.7 C 6.2 C
16.02.2004 13:00 8.9 C 47 % 1025.0 hPa 0.0 l/m 10.8 km/h (2 Bft) O-NO -1.8 C 7.3 C
16.02.2004 14:00 9.5 C 43 % 1024.3 hPa 0.0 l/m 13.6 km/h (3 Bft) O -2.5 C 7.6 C
16.02.2004 15:00 9.6 C 43 % 1024.3 hPa 0.0 l/m 10.9 km/h (2 Bft) O-SO -2.3 C 8.2 C
16.02.2004 16:00 8.9 C 46 % 1024.3 hPa 0.0 l/m 12.9 km/h (3 Bft) O-SO -2.0 C 6.9 C
16.02.2004 17:00 7.2 C 51 % 1024.4 hPa 0.0 l/m 2.5 km/h (1 Bft) O-NO -2.2 C 6.9 C
16.02.2004 18:00 5.9 C 56 % 1025.3 hPa 0.0 l/m 1.2 km/h (1 Bft) O-SO -2.2 C 5.7 C
16.02.2004 19:00 5.2 C 55 % 1025.3 hPa 0.0 l/m 1.5 km/h (1 Bft) O-NO -3.0 C 4.9 C
16.02.2004 20:00 3.9 C 65 % 1025.4 hPa 0.0 l/m 1.6 km/h (1 Bft) S -2.1 C 3.7 C
16.02.2004 21:00 2.7 C 71 % 1025.3 hPa 0.0 l/m 0.4 km/h (0 Bft) O -2.1 C 2.7 C
16.02.2004 22:00 2.2 C 75 % 1026.1 hPa 0.0 l/m 0.0 km/h (0 Bft) N -1.7 C 2.2 C
16.02.2004 23:00 2.1 C 76 % 1025.7 hPa 0.0 l/m 0.4 km/h (0 Bft) N -1.6 C 2.1 C
17.02.2004 00:00 1.1 C 77 % 1025.5 hPa 0.0 l/m 1.8 km/h (1 Bft) O -2.5 C 0.7 C
17.02.2004 01:00 0.1 C 84 % 1025.3 hPa 0.0 l/m 3.2 km/h (1 Bft) O -2.3 C -0.8 C
17.02.2004 02:00 -1.0 C 85 % 1026.2 hPa 0.0 l/m 3.0 km/h (1 Bft) O -3.2 C -1.7 C
17.02.2004 03:00 -1.3 C 90 % 1026.4 hPa 0.0 l/m 3.0 km/h (1 Bft) O -2.8 C -2.1 C
17.02.2004 04:00 -1.9 C 91 % 1026.4 hPa 0.0 l/m 0.7 km/h (0 Bft) O -3.1 C -2.1 C
17.02.2004 05:00 -1.3 C 91 % 1027.2 hPa 0.0 l/m 0.0 km/h (0 Bft) N -2.5 C -1.3 C
17.02.2004 06:00 -0.8 C 93 % 1027.4 hPa 0.0 l/m 0.0 km/h (0 Bft) N -1.8 C -0.8 C
17.02.2004 07:00 -0.2 C 90 % 1027.4 hPa 0.0 l/m 0.0 km/h (0 Bft) N -1.6 C -0.2 C
17.02.2004 08:00 0.2 C 89 % 1027.4 hPa 0.0 l/m 0.0 km/h (0 Bft) N -1.4 C 0.2 C
17.02.2004 09:00 0.9 C 85 % 1028.4 hPa 0.0 l/m 0.0 km/h (0 Bft) N -1.3 C 0.9 C
17.02.2004 10:00 1.9 C 79 % 1028.5 hPa 0.0 l/m 0.1 km/h (0 Bft) N -1.4 C 1.9 C
17.02.2004 11:00 3.6 C 72 % 1028.5 hPa 0.0 l/m 0.6 km/h (0 Bft) O -1.0 C 3.6 C
17.02.2004 12:00 5.1 C 61 % 1027.6 hPa 0.0 l/m 0.1 km/h (0 Bft) N -1.8 C 5.1 C
17.02.2004 13:00 6.5 C 52 % 1027.2 hPa 0.0 l/m 8.1 km/h (2 Bft) W -2.7 C 5.1 C
17.02.2004 14:00 7.9 C 47 % 1026.4 hPa 0.0 l/m 19.4 km/h (3 Bft) W-NW -2.7 C 4.9 C
17.02.2004 15:00 7.2 C 47 % 1026.2 hPa 0.0 l/m 14.9 km/h (3 Bft) W-NW -3.3 C 4.5 C
17.02.2004 16:00 7.0 C 48 % 1025.5 hPa 0.0 l/m 12.6 km/h (3 Bft) W-NW -3.3 C 4.7 C
17.02.2004 17:00 6.5 C 51 % 1025.3 hPa 0.0 l/m 12.3 km/h (3 Bft) W-NW -2.9 C 4.1 C
17.02.2004 18:00 6.0 C 59 % 1025.3 hPa 0.0 l/m 5.2 km/h (1 Bft) W-NW -1.4 C 5.0 C
17.02.2004 19:00 5.1 C 63 % 1025.8 hPa 0.0 l/m 3.5 km/h (1 Bft) W -1.4 C 4.6 C
17.02.2004 20:00 4.0 C 67 % 1026.0 hPa 0.0 l/m 0.8 km/h (0 Bft) SO -1.5 C 3.8 C
17.02.2004 21:00 3.4 C 72 % 1025.3 hPa 0.0 l/m 7.3 km/h (2 Bft) O-SO -1.2 C 1.5 C
17.02.2004 22:00 3.3 C 72 % 1025.3 hPa 0.0 l/m 3.9 km/h (1 Bft) SO -1.3 C 2.4 C
17.02.2004 23:00 2.5 C 80 % 1025.3 hPa 0.0 l/m 0.3 km/h (0 Bft) SO -0.7 C 2.5 C
18.02.2004 00:00 2.2 C 83 % 1025.3 hPa 0.0 l/m 0.3 km/h (0 Bft) S-SW -0.5 C 2.2 C
18.02.2004 01:00 1.1 C 86 % 1024.6 hPa 0.0 l/m 0.0 km/h (0 Bft) N -1.0 C 1.1 C
18.02.2004 02:00 0.0 C 89 % 1024.3 hPa 0.0 l/m 0.0 km/h (0 Bft) N -1.6 C 0.0 C
18.02.2004 03:00 -0.7 C 91 % 1024.3 hPa 0.0 l/m 0.0 km/h (0 Bft) N -1.9 C -0.7 C
18.02.2004 04:00 -1.1 C 93 % 1023.3 hPa 0.0 l/m 0.0 km/h (0 Bft) N -2.1 C -1.1 C
18.02.2004 05:00 -1.6 C 93 % 1023.7 hPa 0.0 l/m 0.1 km/h (0 Bft) N -2.6 C -1.6 C
18.02.2004 06:00 -2.2 C 94 % 1023.3 hPa 0.0 l/m 0.8 km/h (0 Bft) S -3.1 C -2.3 C
18.02.2004 07:00 -1.9 C 95 % 1023.3 hPa 0.0 l/m 0.0 km/h (0 Bft) N -2.6 C -1.9 C
18.02.2004 08:00 -1.1 C 97 % 1023.3 hPa 0.0 l/m 0.0 km/h (0 Bft) N -1.4 C -1.1 C
18.02.2004 09:00 0.7 C 93 % 1023.3 hPa 0.0 l/m 0.2 km/h (0 Bft) N -0.3 C 0.7 C
18.02.2004 10:00 1.8 C 85 % 1023.3 hPa 0.0 l/m 0.2 km/h (0 Bft) N-NW -0.4 C 1.8 C
18.02.2004 11:00 3.0 C 76 % 1023.0 hPa 0.0 l/m 0.9 km/h (0 Bft) W-NW -0.9 C 2.8 C
18.02.2004 12:00 4.2 C 66 % 1022.2 hPa 0.0 l/m 0.4 km/h (0 Bft) N-NW -1.6 C 4.2 C
18.02.2004 13:00 3.7 C 67 % 1021.2 hPa 0.0 l/m 0.9 km/h (0 Bft) N-NW -1.8 C 3.6 C
18.02.2004 14:00 3.9 C 65 % 1021.2 hPa 0.0 l/m 0.4 km/h (0 Bft) W -2.1 C 3.9 C
18.02.2004 15:00 3.6 C 69 % 1021.1 hPa 0.0 l/m 0.2 km/h (0 Bft) NO -1.6 C 3.6 C
18.02.2004 16:00 3.3 C 72 % 1020.1 hPa 0.0 l/m 1.7 km/h (1 Bft) W-NW -1.3 C 2.9 C
18.02.2004 17:00 2.7 C 75 % 1020.1 hPa 0.0 l/m 1.0 km/h (0 Bft) W-NW -1.3 C 2.5 C
18.02.2004 18:00 2.3 C 80 % 1019.1 hPa 0.0 l/m 0.0 km/h (0 Bft) N -0.7 C 2.3 C
18.02.2004 19:00 1.7 C 83 % 1019.1 hPa 0.0 l/m 2.8 km/h (1 Bft) NO -0.9 C 1.2 C
18.02.2004 20:00 1.2 C 72 % 1018.9 hPa 0.0 l/m 0.5 km/h (0 Bft) O -3.3 C 1.2 C
18.02.2004 21:00 1.2 C 66 % 1018.1 hPa 0.0 l/m 0.4 km/h (0 Bft) N -4.6 C 1.1 C
18.02.2004 22:00 0.7 C 65 % 1017.9 hPa 0.0 l/m 0.1 km/h (0 Bft) N -5.1 C 0.7 C
18.02.2004 23:00 -0.2 C 72 % 1017.0 hPa 0.0 l/m 0.5 km/h (0 Bft) NO -4.7 C -0.2 C
19.02.2004 00:00 -1.0 C 76 % 1016.5 hPa 0.0 l/m 0.0 km/h (0 Bft) N -4.7 C -1.0 C
19.02.2004 01:00 -1.2 C 81 % 1015.8 hPa 0.0 l/m 0.0 km/h (0 Bft) N -4.1 C -1.2 C
19.02.2004 02:00 -0.9 C 75 % 1014.9 hPa 0.0 l/m 0.2 km/h (0 Bft) N -4.8 C -0.9 C
19.02.2004 03:00 -0.2 C 70 % 1014.4 hPa 0.0 l/m 0.5 km/h (0 Bft) NO -5.0 C -0.2 C
19.02.2004 04:00 0.2 C 68 % 1013.4 hPa 0.0 l/m 3.6 km/h (1 Bft) NO -5.1 C -0.7 C
19.02.2004 05:00 0.6 C 68 % 1012.8 hPa 0.0 l/m 4.5 km/h (1 Bft) O -4.7 C -0.6 C
19.02.2004 06:00 0.8 C 62 % 1012.8 hPa 0.0 l/m 6.8 km/h (2 Bft) NO -5.7 C -0.9 C
19.02.2004 07:00 0.7 C 60 % 1012.8 hPa 0.0 l/m 10.2 km/h (2 Bft) NO -6.0 C -1.8 C
19.02.2004 08:00 0.9 C 60 % 1012.8 hPa 0.0 l/m 12.1 km/h (2 Bft) NO -5.9 C -2.1 C
19.02.2004 09:00 1.3 C 58 % 1012.8 hPa 0.0 l/m 13.8 km/h (3 Bft) NO -6.0 C -2.1 C
19.02.2004 10:00 1.6 C 56 % 1012.8 hPa 0.0 l/m 13.1 km/h (3 Bft) NO -6.2 C -1.7 C
19.02.2004 11:00 1.9 C 54 % 1012.8 hPa 0.0 l/m 13.4 km/h (3 Bft) NO -6.5 C -1.3 C
19.02.2004 12:00 2.4 C 50 % 1012.4 hPa 0.0 l/m 19.2 km/h (3 Bft) O -6.9 C -1.8 C
19.02.2004 13:00 2.7 C 49 % 1011.8 hPa 0.0 l/m 19.5 km/h (3 Bft) O-NO -7.1 C -1.7 C
19.02.2004 14:00 2.8 C 47 % 1011.8 hPa 0.0 l/m 20.0 km/h (4 Bft) O-NO -7.3 C -1.5 C
19.02.2004 15:00 2.4 C 48 % 1011.8 hPa 0.0 l/m 26.0 km/h (4 Bft) O -7.6 C -2.8 C
19.02.2004 16:00 2.1 C 50 % 1011.9 hPa 0.0 l/m 19.6 km/h (3 Bft) O-NO -7.4 C -2.3 C
19.02.2004 17:00 1.9 C 50 % 1012.0 hPa 0.0 l/m 24.2 km/h (4 Bft) O -7.4 C -3.3 C
19.02.2004 18:00 1.4 C 56 % 1012.8 hPa 0.0 l/m 16.4 km/h (3 Bft) O-NO -6.5 C -2.4 C
19.02.2004 19:00 1.4 C 56 % 1012.8 hPa 0.0 l/m 6.3 km/h (2 Bft) O-NO -6.4 C -0.2 C
19.02.2004 20:00 1.5 C 53 % 1012.8 hPa 0.0 l/m 11.2 km/h (2 Bft) NO -7.1 C -1.4 C
19.02.2004 21:00 1.1 C 54 % 1013.7 hPa 0.0 l/m 10.1 km/h (2 Bft) O-NO -7.3 C -1.5 C
19.02.2004 22:00 0.9 C 55 % 1013.9 hPa 0.0 l/m 10.1 km/h (2 Bft) O-NO -7.1 C -1.7 C
19.02.2004 23:00 0.7 C 57 % 1014.1 hPa 0.0 l/m 9.9 km/h (2 Bft) O-NO -6.9 C -1.9 C
20.02.2004 00:00 0.4 C 59 % 1014.9 hPa 0.0 l/m 5.0 km/h (1 Bft) NO -6.8 C -1.1 C
20.02.2004 01:00 -0.1 C 61 % 1014.9 hPa 0.0 l/m 4.8 km/h (1 Bft) O-NO -6.7 C -1.4 C
20.02.2004 02:00 -0.6 C 62 % 1016.0 hPa 0.0 l/m 3.5 km/h (1 Bft) O -7.1 C -1.6 C
20.02.2004 03:00 -0.9 C 64 % 1016.0 hPa 0.0 l/m 3.5 km/h (1 Bft) O -6.8 C -2.1 C
20.02.2004 04:00 -1.3 C 66 % 1016.0 hPa 0.0 l/m 3.7 km/h (1 Bft) O-NO -6.7 C -2.4 C
20.02.2004 05:00 -1.2 C 63 % 1016.5 hPa 0.0 l/m 3.5 km/h (1 Bft) NO -7.3 C -2.0 C
20.02.2004 06:00 -1.2 C 61 % 1017.0 hPa 0.0 l/m 3.5 km/h (1 Bft) O-NO -7.8 C -2.3 C
20.02.2004 07:00 -1.4 C 60 % 1017.2 hPa 0.0 l/m 6.4 km/h (2 Bft) O-NO -8.1 C -3.4 C
20.02.2004 08:00 -1.2 C 59 % 1018.0 hPa 0.0 l/m 10.2 km/h (2 Bft) O-NO -8.1 C -4.3 C
20.02.2004 09:00 -0.6 C 58 % 1018.1 hPa 0.0 l/m 9.5 km/h (2 Bft) NO -7.9 C -3.4 C
20.02.2004 10:00 1.1 C 54 % 1018.4 hPa 0.0 l/m 10.2 km/h (2 Bft) O -7.1 C -1.7 C
20.02.2004 11:00 2.7 C 50 % 1018.4 hPa 0.0 l/m 10.0 km/h (2 Bft) O-SO -6.6 C 0.3 C
20.02.2004 12:00 4.4 C 48 % 1018.2 hPa 0.0 l/m 11.6 km/h (2 Bft) O-SO -5.5 C 1.8 C
20.02.2004 13:00 5.7 C 47 % 1018.1 hPa 0.0 l/m 7.5 km/h (2 Bft) O -4.8 C 4.2 C
20.02.2004 14:00 6.3 C 45 % 1018.1 hPa 0.0 l/m 8.4 km/h (2 Bft) O-SO -4.7 C 4.8 C
20.02.2004 15:00 6.7 C 45 % 1018.1 hPa 0.0 l/m 11.5 km/h (2 Bft) O-SO -4.2 C 4.6 C
20.02.2004 16:00 6.4 C 46 % 1018.1 hPa 0.0 l/m 7.8 km/h (2 Bft) O -4.3 C 4.9 C
20.02.2004 17:00 5.2 C 50 % 1018.1 hPa 0.0 l/m 4.8 km/h (1 Bft) NO -4.4 C 4.2 C
20.02.2004 18:00 3.9 C 54 % 1018.1 hPa 0.0 l/m 2.4 km/h (1 Bft) O -4.4 C 3.5 C
20.02.2004 19:00 2.7 C 58 % 1018.5 hPa 0.0 l/m 1.6 km/h (1 Bft) O-SO -4.6 C 2.4 C
20.02.2004 20:00 2.1 C 60 % 1018.1 hPa 0.0 l/m 1.0 km/h (0 Bft) N-NO -4.9 C 1.9 C
20.02.2004 21:00 1.2 C 67 % 1018.1 hPa 0.0 l/m 0.2 km/h (0 Bft) O-NO -4.2 C 1.2 C
20.02.2004 22:00 1.0 C 69 % 1018.1 hPa 0.0 l/m 0.9 km/h (0 Bft) NO -4.0 C 1.0 C
20.02.2004 23:00 0.2 C 73 % 1017.5 hPa 0.0 l/m 0.8 km/h (0 Bft) O -4.1 C 0.1 C
21.02.2004 00:00 -0.2 C 76 % 1017.1 hPa 0.0 l/m 0.6 km/h (0 Bft) O -3.9 C -0.3 C
21.02.2004 01:00 0.2 C 75 % 1016.5 hPa 0.0 l/m 2.9 km/h (1 Bft) O -3.8 C -0.6 C
21.02.2004 02:00 0.4 C 72 % 1016.0 hPa 0.0 l/m 2.2 km/h (1 Bft) O -4.2 C -0.1 C
21.02.2004 03:00 -0.1 C 75 % 1015.4 hPa 0.0 l/m 4.2 km/h (1 Bft) O -3.9 C -1.3 C
21.02.2004 04:00 -0.3 C 76 % 1013.7 hPa 0.0 l/m 2.5 km/h (1 Bft) O -3.9 C -1.0 C
21.02.2004 05:00 -0.0 C 71 % 1012.5 hPa 0.0 l/m 14.3 km/h (3 Bft) O-SO -4.6 C -4.1 C
21.02.2004 06:00 0.4 C 68 % 1011.6 hPa 0.0 l/m 19.7 km/h (3 Bft) O-SO -4.8 C -4.7 C
21.02.2004 07:00 0.6 C 66 % 1010.8 hPa 0.0 l/m 19.0 km/h (3 Bft) O-SO -5.0 C -4.1 C
21.02.2004 08:00 0.8 C 65 % 1010.2 hPa 0.0 l/m 2.5 km/h (1 Bft) O -4.9 C 0.1 C
21.02.2004 09:00 1.3 C 63 % 1009.7 hPa 0.0 l/m 9.7 km/h (2 Bft) O-SO -4.9 C -1.5 C
21.02.2004 10:00 1.6 C 62 % 1009.7 hPa 0.0 l/m 6.8 km/h (2 Bft) O-SO -4.9 C -0.3 C
21.02.2004 11:00 2.5 C 59 % 1010.5 hPa 0.0 l/m 0.3 km/h (0 Bft) O-SO -4.8 C 2.5 C
21.02.2004 12:00 4.2 C 54 % 1009.6 hPa 0.0 l/m 4.6 km/h (1 Bft) O-SO -4.4 C 3.2 C
21.02.2004 13:00 7.2 C 45 % 1008.6 hPa 0.0 l/m 2.9 km/h (1 Bft) O-SO -4.1 C 6.8 C
21.02.2004 14:00 9.7 C 43 % 1007.5 hPa 0.0 l/m 13.3 km/h (3 Bft) O-SO -2.3 C 8.2 C
21.02.2004 15:00 10.0 C 43 % 1006.8 hPa 0.0 l/m 11.4 km/h (2 Bft) O-SO -2.0 C 8.9 C
21.02.2004 16:00 8.4 C 47 % 1006.6 hPa 0.0 l/m 10.9 km/h (2 Bft) O-SO -2.2 C 6.7 C
21.02.2004 17:00 7.1 C 51 % 1006.6 hPa 0.0 l/m 3.2 km/h (1 Bft) O -2.4 C 6.7 C
21.02.2004 18:00 6.4 C 55 % 1006.6 hPa 0.0 l/m 3.9 km/h (1 Bft) O -2.1 C 5.7 C
21.02.2004 19:00 5.4 C 58 % 1006.6 hPa 0.0 l/m 1.8 km/h (1 Bft) O -2.1 C 5.0 C
21.02.2004 20:00 5.0 C 63 % 1006.6 hPa 0.0 l/m 0.0 km/h (0 Bft) N -1.4 C 5.0 C
21.02.2004 21:00 4.4 C 64 % 1006.6 hPa 0.0 l/m 0.2 km/h (0 Bft) N-NW -1.8 C 4.4 C
21.02.2004 22:00 3.8 C 66 % 1006.6 hPa 0.0 l/m 0.0 km/h (0 Bft) N -2.1 C 3.8 C
21.02.2004 23:00 3.2 C 67 % 1006.6 hPa 0.0 l/m 0.0 km/h (0 Bft) N -2.3 C 3.2 C
22.02.2004 00:00 2.8 C 69 % 1006.6 hPa 0.0 l/m 0.0 km/h (0 Bft) N -2.3 C 2.8 C
22.02.2004 01:00 1.6 C 78 % 1006.6 hPa 0.0 l/m 0.5 km/h (0 Bft) NO -1.9 C 1.5 C
22.02.2004 02:00 0.7 C 82 % 1006.6 hPa 0.0 l/m 1.2 km/h (1 Bft) NO -2.0 C 0.4 C
22.02.2004 03:00 0.5 C 84 % 1006.6 hPa 0.0 l/m 0.7 km/h (0 Bft) O-NO -1.9 C 0.3 C
22.02.2004 04:00 0.2 C 85 % 1005.9 hPa 0.0 l/m 0.0 km/h (0 Bft) O-NO -2.1 C 0.2 C
22.02.2004 05:00 0.1 C 89 % 1006.5 hPa 0.0 l/m 0.4 km/h (0 Bft) O-NO -1.6 C 0.1 C
22.02.2004 06:00 0.5 C 87 % 1005.6 hPa 0.0 l/m 0.0 km/h (0 Bft) N -1.4 C 0.5 C
22.02.2004 07:00 1.0 C 86 % 1005.7 hPa 0.0 l/m 0.0 km/h (0 Bft) N -1.1 C 1.0 C
22.02.2004 08:00 1.6 C 84 % 1006.6 hPa 0.0 l/m 0.0 km/h (0 Bft) N -0.8 C 1.6 C
22.02.2004 09:00 2.3 C 83 % 1006.6 hPa 0.7 l/m 0.1 km/h (0 Bft) O-NO -0.2 C 2.3 C
22.02.2004 10:00 2.9 C 87 % 1006.6 hPa 0.3 l/m 0.0 km/h (0 Bft) N 0.9 C 2.9 C
22.02.2004 11:00 4.3 C 87 % 1006.6 hPa 0.0 l/m 0.5 km/h (0 Bft) O-SO 2.4 C 4.3 C
22.02.2004 12:00 5.9 C 80 % 1005.7 hPa 0.0 l/m 0.4 km/h (0 Bft) O-NO 2.6 C 5.9 C
22.02.2004 13:00 6.8 C 74 % 1004.8 hPa 0.0 l/m 0.0 km/h (0 Bft) N 2.5 C 6.8 C
22.02.2004 14:00 8.2 C 72 % 1004.5 hPa 0.0 l/m 0.2 km/h (0 Bft) W-NW 3.5 C 8.1 C
22.02.2004 15:00 7.9 C 78 % 1004.5 hPa 0.7 l/m 0.0 km/h (0 Bft) N 4.3 C 7.9 C
22.02.2004 16:00 7.6 C 90 % 1004.5 hPa 0.3 l/m 0.0 km/h (0 Bft) N 6.0 C 7.6 C
22.02.2004 17:00 7.2 C 91 % 1003.7 hPa 0.0 l/m 0.0 km/h (0 Bft) N 5.8 C 7.2 C
22.02.2004 18:00 6.9 C 93 % 1003.5 hPa 0.0 l/m 0.0 km/h (0 Bft) N 5.9 C 6.9 C
22.02.2004 19:00 6.8 C 96 % 1003.5 hPa 0.0 l/m 0.0 km/h (0 Bft) N 6.2 C 6.8 C
22.02.2004 20:00 6.5 C 98 % 1003.5 hPa 0.0 l/m 2.5 km/h (1 Bft) W-NW 6.2 C 6.0 C
22.02.2004 21:00 5.3 C 98 % 1004.3 hPa 0.7 l/m 2.1 km/h (1 Bft) NW 5.0 C 5.0 C
22.02.2004 22:00 4.0 C 98 % 1004.5 hPa 1.0 l/m 0.4 km/h (0 Bft) N 3.7 C 4.0 C
22.02.2004 23:00 3.0 C 97 % 1005.0 hPa 1.4 l/m 0.3 km/h (0 Bft) N 2.6 C 3.0 C
Min-Datum _ 18.02.04 21.02.04 22.02.04 - 16.02.04 - 20.02.04 20.02.04
_ Min-Zeit 06:08 14:51 17:12 - 00:02 - 07:59 08:38
Minimum _ -2.4 C 40 % 1003.5 hPa - 0.0 km/h (0 Bft) - -8.4 C -6.8 C
Max-Datum _ 21.02.04 22.02.04 17.02.04 22.02.04 19.02.04 - 22.02.04 21.02.04
_ Max-Zeit 15:30 20:48 09:05 22:00 14:38 - 20:06 15:30
Maximum _ 10.6 C 100 % 1028.5 hPa 1.4 l/m 43.3 km/h
O-NO (6 Bft)
- 6.4 C 10.6 C
Durchschnitt _ 2.7 C 69 % 1017.0 hPa #5.1 l/m 4.5 km/h (1 Bft) O -2.8 C 1.7 C

Durchschnitt Minimum Temp.2.1 C
Durchschnitt Maximum Temp.3.2 C
© Kaiko 2004